Sosnowiec, Poland
Current Conditions -  °F | °C
As of 8:30 AM on Monday 24 Nov 2014 (Local Time) from EPKT Reporting Station
Broken Clouds Broken Clouds  
Wind Chill: 24°   Ceiling: 600
Heat Index: 32°   Visibility: 6mi
Dew Point: 28°   Wind: 10mph
Humidity: 87%   Direction: 110°ESE
Pressure: 30.3"   Gusts: NA
Location:  50.28°N, 19.12°E
Report Text: EPKT 240630Z 11009KT 9999 BKN006 M00/M02 Q1026
Loading
Personal Weather Stations






























Interactive Weather Map New forecast layout! Learn more

10-Day Weather Forecast

Advertisements
Track Severe Weather on mobile